createdAt,value
2022-09-03T00:01:22.162Z,64.20
2022-09-03T00:04:07.042Z,65.20
2022-09-03T00:06:58.472Z,65.00
2022-09-03T00:09:47.869Z,64.40
2022-09-03T00:12:25.028Z,64.30
2022-09-03T00:15:10.771Z,64.10
2022-09-03T00:17:55.112Z,64.40
2022-09-03T00:20:42.031Z,64.40
2022-09-03T00:23:25.341Z,64.40
2022-09-03T00:26:18.900Z,64.20
2022-09-03T00:28:55.168Z,64.70
2022-09-03T00:31:38.644Z,64.40
2022-09-03T00:34:17.941Z,64.40
2022-09-03T00:36:46.228Z,64.40
2022-09-03T00:39:17.409Z,64.30
2022-09-03T00:42:09.281Z,64.60
2022-09-03T00:45:09.193Z,65.00
2022-09-03T00:48:20.043Z,64.80
2022-09-03T00:51:28.287Z,65.00
2022-09-03T00:54:01.039Z,65.00
2022-09-03T00:56:45.182Z,64.80
2022-09-03T00:59:48.746Z,65.20
2022-09-03T01:02:46.626Z,66.30
2022-09-03T01:05:45.842Z,65.20
2022-09-03T01:08:50.952Z,65.30
2022-09-03T01:11:40.416Z,64.60
2022-09-03T01:14:25.519Z,65.30
2022-09-03T01:17:03.392Z,64.60
2022-09-03T01:20:08.837Z,65.30
2022-09-03T01:22:57.433Z,65.60
2022-09-03T01:25:36.760Z,64.80
2022-09-03T01:29:07.455Z,65.40
2022-09-03T01:32:05.701Z,65.70
2022-09-03T01:34:56.587Z,64.90
2022-09-03T01:37:58.533Z,64.90
2022-09-03T01:40:47.901Z,65.90
2022-09-03T01:43:17.640Z,66.00
2022-09-03T01:45:52.304Z,65.10
2022-09-03T01:48:31.605Z,65.40
2022-09-03T01:51:23.572Z,66.10
2022-09-03T01:54:18.119Z,66.30
2022-09-03T01:57:34.524Z,65.40
2022-09-03T02:00:15.188Z,66.30
2022-09-03T02:02:47.997Z,66.30
2022-09-03T02:05:20.503Z,65.70
2022-09-03T02:08:07.420Z,66.40
2022-09-03T02:10:43.537Z,66.50
2022-09-03T02:13:25.837Z,66.40
2022-09-03T02:15:57.046Z,66.70
2022-09-03T02:18:32.360Z,65.90
2022-09-03T02:21:01.329Z,66.20
2022-09-03T02:23:28.762Z,66.10
2022-09-03T02:26:03.441Z,66.10
2022-09-03T02:28:32.944Z,66.30
2022-09-03T02:31:00.195Z,66.30
2022-09-03T02:33:27.875Z,66.10
2022-09-03T02:35:55.468Z,66.30
2022-09-03T02:38:26.693Z,66.30
2022-09-03T02:40:54.663Z,66.50
2022-09-03T02:43:38.953Z,66.30
2022-09-03T02:46:11.008Z,67.30
2022-09-03T02:48:38.144Z,66.70
2022-09-03T02:51:13.558Z,66.40
2022-09-03T02:53:43.118Z,66.40
2022-09-03T02:56:10.655Z,66.50
2022-09-03T02:58:38.400Z,66.50
2022-09-03T03:01:06.307Z,66.50
2022-09-03T03:03:33.820Z,66.60
2022-09-03T03:06:06.138Z,66.60
2022-09-03T03:08:35.082Z,67.20
2022-09-03T03:11:03.061Z,66.80
2022-09-03T03:13:31.844Z,66.80
2022-09-03T03:16:01.475Z,66.90
2022-09-03T03:18:29.775Z,66.90
2022-09-03T03:20:56.737Z,66.90
2022-09-03T03:23:24.077Z,66.90
2022-09-03T03:25:51.052Z,66.90
2022-09-03T03:28:20.758Z,66.90
2022-09-03T03:30:49.133Z,67.00
2022-09-03T03:33:16.408Z,67.10
2022-09-03T03:35:43.952Z,67.10
2022-09-03T03:38:11.157Z,67.10
2022-09-03T03:40:39.424Z,67.20
2022-09-03T03:43:06.469Z,67.30
2022-09-03T03:45:33.579Z,67.20
2022-09-03T03:48:00.767Z,67.30
2022-09-03T03:50:28.333Z,67.30
2022-09-03T03:52:56.427Z,67.30
2022-09-03T03:55:23.517Z,67.40
2022-09-03T03:57:54.139Z,67.40
2022-09-03T04:00:21.285Z,67.40
2022-09-03T04:02:52.332Z,67.40
2022-09-03T04:05:23.195Z,67.40
2022-09-03T04:07:51.001Z,67.50
2022-09-03T04:10:18.048Z,67.50
2022-09-03T04:12:45.203Z,67.60
2022-09-03T04:15:12.486Z,67.60
2022-09-03T04:17:40.098Z,67.70
2022-09-03T04:20:07.448Z,67.80
2022-09-03T04:22:34.495Z,67.80
2022-09-03T04:25:01.444Z,67.80
2022-09-03T04:27:28.525Z,67.90
2022-09-03T04:29:55.581Z,67.90
2022-09-03T04:32:41.148Z,68.10
2022-09-03T04:35:08.657Z,68.00
2022-09-03T04:37:36.433Z,68.10
2022-09-03T04:40:04.649Z,68.10
2022-09-03T04:42:31.688Z,68.20
2022-09-03T04:44:58.946Z,68.30
2022-09-03T04:47:26.285Z,68.30
2022-09-03T04:49:54.061Z,68.40
2022-09-03T04:52:21.467Z,68.60
2022-09-03T04:54:48.613Z,68.60
2022-09-03T04:57:15.831Z,68.80
2022-09-03T04:59:42.916Z,68.80
2022-09-03T05:02:24.303Z,68.80
2022-09-03T05:04:53.677Z,68.90
2022-09-03T05:07:21.329Z,68.90
2022-09-03T05:09:49.781Z,69.00
2022-09-03T05:12:17.701Z,69.20
2022-09-03T05:14:44.797Z,69.30
2022-09-03T05:17:11.804Z,69.30
2022-09-03T05:19:39.049Z,69.30
2022-09-03T05:22:05.965Z,69.30
2022-09-03T05:24:33.132Z,69.30
2022-09-03T05:27:00.232Z,69.40
2022-09-03T05:29:27.334Z,69.40
2022-09-03T05:31:54.940Z,70.40
2022-09-03T05:34:22.088Z,69.50
2022-09-03T05:36:50.043Z,69.40
2022-09-03T05:39:17.252Z,69.30
2022-09-03T05:41:44.328Z,69.30
2022-09-03T05:44:11.531Z,69.30
2022-09-03T05:46:38.575Z,69.40
2022-09-03T05:49:07.666Z,69.30
2022-09-03T05:51:37.250Z,69.30
2022-09-03T05:54:05.433Z,69.10
2022-09-03T05:56:36.899Z,69.00
2022-09-03T05:59:09.262Z,69.00
2022-09-03T06:01:48.586Z,69.00
2022-09-03T06:04:19.300Z,69.10
2022-09-03T06:06:48.162Z,68.80
2022-09-03T06:09:23.498Z,68.80
2022-09-03T06:11:52.453Z,69.00
2022-09-03T06:14:20.316Z,68.80
2022-09-03T06:16:50.152Z,68.90
2022-09-03T06:19:18.067Z,68.60
2022-09-03T06:21:46.847Z,68.60
2022-09-03T06:24:20.326Z,68.70
2022-09-03T06:26:48.377Z,68.70
2022-09-03T06:29:15.679Z,68.80
2022-09-03T06:31:43.048Z,68.60
2022-09-03T06:34:10.380Z,68.60
2022-09-03T06:36:42.717Z,68.50
2022-09-03T06:39:11.829Z,68.60
2022-09-03T06:41:40.375Z,68.50
2022-09-03T06:44:11.946Z,68.40
2022-09-03T06:46:42.919Z,68.50
2022-09-03T06:49:11.585Z,68.60
2022-09-03T06:51:39.545Z,68.70
2022-09-03T06:54:10.485Z,68.60
2022-09-03T06:56:41.155Z,68.60
2022-09-03T06:59:12.521Z,68.50
2022-09-03T07:01:44.155Z,69.40
2022-09-03T07:04:16.310Z,68.50
2022-09-03T07:06:44.275Z,68.40
2022-09-03T07:09:13.261Z,68.30
2022-09-03T07:11:48.049Z,68.50
2022-09-03T07:14:20.791Z,68.40
2022-09-03T07:16:50.365Z,68.20
2022-09-03T07:19:17.980Z,68.20
2022-09-03T07:21:50.805Z,68.20
2022-09-03T07:24:19.802Z,68.10
2022-09-03T07:26:48.861Z,67.90
2022-09-03T07:29:20.225Z,68.00
2022-09-03T07:31:51.905Z,67.80
2022-09-03T07:34:22.156Z,67.70
2022-09-03T07:36:51.820Z,67.70
2022-09-03T07:39:19.595Z,67.70
2022-09-03T07:41:47.229Z,67.60
2022-09-03T07:44:21.777Z,67.60
2022-09-03T07:46:51.813Z,67.70
2022-09-03T07:49:21.954Z,67.60
2022-09-03T07:51:54.229Z,67.50
2022-09-03T07:54:23.565Z,67.40
2022-09-03T07:56:50.638Z,67.30
2022-09-03T07:59:18.117Z,67.30
2022-09-03T08:01:45.436Z,67.30
2022-09-03T08:04:13.779Z,67.20
2022-09-03T08:06:41.021Z,67.10
2022-09-03T08:09:13.496Z,67.10
2022-09-03T08:11:43.472Z,67.20
2022-09-03T08:14:12.858Z,67.20
2022-09-03T08:16:48.709Z,67.10
2022-09-03T08:19:18.467Z,67.20
2022-09-03T08:21:47.375Z,67.20
2022-09-03T08:24:17.541Z,67.20
2022-09-03T08:26:51.108Z,67.10
2022-09-03T08:29:20.588Z,67.20
2022-09-03T08:31:47.921Z,67.30
2022-09-03T08:34:17.476Z,67.30
2022-09-03T08:36:46.607Z,67.10
2022-09-03T08:39:14.380Z,67.10
2022-09-03T08:41:53.717Z,66.90
2022-09-03T08:44:29.554Z,66.80
2022-09-03T08:47:12.264Z,66.70
2022-09-03T08:50:05.376Z,66.20
2022-09-03T08:52:37.223Z,66.20
2022-09-03T08:55:29.903Z,66.00
2022-09-03T08:58:02.532Z,66.20
2022-09-03T09:00:50.969Z,66.20
2022-09-03T09:03:36.281Z,66.20
2022-09-03T09:06:12.686Z,66.10
2022-09-03T09:09:02.489Z,66.20
2022-09-03T09:12:03.552Z,66.20
2022-09-03T09:15:11.797Z,65.90
2022-09-03T09:18:07.384Z,66.40
2022-09-03T09:21:08.144Z,66.30
2022-09-03T09:23:50.485Z,66.10
2022-09-03T09:26:21.479Z,65.50
2022-09-03T09:29:04.542Z,65.80
2022-09-03T09:31:33.444Z,65.70
2022-09-03T09:34:08.712Z,65.50
2022-09-03T09:36:49.956Z,65.40
2022-09-03T09:39:17.755Z,65.40
2022-09-03T09:42:11.224Z,65.30
2022-09-03T09:44:41.627Z,65.20
2022-09-03T09:47:24.255Z,64.90
2022-09-03T09:49:58.215Z,65.20
2022-09-03T09:52:29.496Z,64.80
2022-09-03T09:55:11.083Z,65.10
2022-09-03T09:57:39.746Z,65.20
2022-09-03T10:00:12.260Z,65.00
2022-09-03T10:02:47.770Z,65.00
2022-09-03T10:05:27.684Z,64.50
2022-09-03T10:08:01.083Z,64.60
2022-09-03T10:10:35.472Z,64.60
2022-09-03T10:13:13.292Z,64.70
2022-09-03T10:15:47.707Z,64.70
2022-09-03T10:18:51.968Z,64.80
2022-09-03T10:21:44.119Z,64.90
2022-09-03T10:24:40.247Z,64.40
2022-09-03T10:27:14.925Z,64.60
2022-09-03T10:29:42.153Z,64.60
2022-09-03T10:32:47.747Z,64.10
2022-09-03T10:35:33.741Z,64.40
2022-09-03T10:38:29.235Z,64.20
2022-09-03T10:41:28.909Z,64.30
2022-09-03T10:44:06.787Z,64.20
2022-09-03T10:47:12.916Z,64.40
2022-09-03T10:49:43.594Z,64.30
2022-09-03T10:52:43.822Z,64.10
2022-09-03T10:55:19.960Z,63.60
2022-09-03T10:58:23.699Z,63.70
2022-09-03T11:01:10.927Z,63.70
2022-09-03T11:04:02.116Z,63.60
2022-09-03T11:06:38.213Z,63.40
2022-09-03T11:09:24.967Z,63.10
2022-09-03T11:12:07.082Z,62.80
2022-09-03T11:14:49.327Z,63.60
2022-09-03T11:17:34.384Z,62.80
2022-09-03T11:20:18.871Z,62.20
2022-09-03T11:22:49.134Z,62.30
2022-09-03T11:25:21.910Z,61.90
2022-09-03T11:28:23.241Z,62.20
2022-09-03T11:31:17.694Z,62.40
2022-09-03T11:34:31.760Z,62.50
2022-09-03T11:37:28.501Z,62.80
2022-09-03T11:40:17.541Z,62.50
2022-09-03T11:42:46.092Z,61.70
2022-09-03T11:45:35.886Z,62.10
2022-09-03T11:48:28.611Z,61.60
2022-09-03T11:50:56.386Z,61.40
2022-09-03T11:53:28.513Z,61.60
2022-09-03T11:56:02.330Z,61.40
2022-09-03T11:58:43.466Z,60.90
2022-09-03T12:01:18.983Z,60.80
2022-09-03T12:04:03.799Z,60.10
2022-09-03T12:07:15.156Z,60.10
2022-09-03T12:10:38.745Z,60.20
2022-09-03T12:13:28.675Z,60.40
2022-09-03T12:16:19.358Z,60.00
2022-09-03T12:18:47.989Z,60.30
2022-09-03T12:21:17.457Z,59.90
2022-09-03T12:23:51.111Z,59.90
2022-09-03T12:26:27.547Z,59.20
2022-09-03T12:29:00.272Z,59.20
2022-09-03T12:31:33.129Z,57.80
2022-09-03T12:34:14.831Z,57.50
2022-09-03T12:36:54.231Z,56.10
2022-09-03T12:42:26.955Z,55.30
2022-09-03T12:44:54.392Z,54.00
2022-09-03T12:47:40.646Z,53.80
2022-09-03T12:50:25.489Z,52.60
2022-09-03T12:52:54.699Z,53.30
2022-09-03T12:55:28.338Z,52.00
2022-09-03T12:58:13.972Z,49.70
2022-09-03T13:00:51.357Z,51.10
2022-09-03T13:03:31.881Z,50.10
2022-09-03T13:06:09.550Z,50.10
2022-09-03T13:09:06.975Z,48.50
2022-09-03T13:11:39.203Z,50.00
2022-09-03T13:14:13.157Z,48.80
2022-09-03T13:17:24.728Z,47.20
2022-09-03T13:20:03.895Z,44.70
2022-09-03T13:23:02.596Z,44.20
2022-09-03T13:26:11.133Z,43.10
2022-09-03T13:28:58.445Z,44.80
2022-09-03T13:31:36.304Z,44.50
2022-09-03T13:34:09.770Z,42.70
2022-09-03T13:36:50.260Z,42.00
2022-09-03T13:39:31.413Z,42.50
2022-09-03T13:42:20.546Z,41.10
2022-09-03T13:44:52.929Z,42.50
2022-09-03T13:47:32.065Z,41.60
2022-09-03T13:50:26.993Z,42.00
2022-09-03T13:53:10.957Z,42.20
2022-09-03T13:56:05.190Z,41.90
2022-09-03T13:58:46.314Z,42.00
2022-09-03T14:01:39.792Z,42.50
2022-09-03T14:04:20.538Z,42.70
2022-09-03T14:07:08.285Z,42.50
2022-09-03T14:10:08.636Z,43.50
2022-09-03T14:12:53.513Z,43.00
2022-09-03T14:15:31.171Z,43.80
2022-09-03T14:18:23.751Z,43.60
2022-09-03T14:21:11.593Z,44.10
2022-09-03T14:24:19.821Z,43.20
2022-09-03T14:26:56.728Z,44.60
2022-09-03T14:29:30.879Z,43.80
2022-09-03T14:32:41.233Z,43.70
2022-09-03T14:35:15.199Z,44.10
2022-09-03T14:38:51.689Z,43.70
2022-09-03T14:41:54.022Z,43.70
2022-09-03T14:44:40.102Z,42.00
2022-09-03T14:47:14.577Z,40.50
2022-09-03T14:50:23.592Z,41.00
2022-09-03T14:53:56.754Z,41.60
2022-09-03T14:56:38.660Z,40.50
2022-09-03T15:00:01.554Z,40.30
2022-09-03T15:02:34.654Z,41.50
2022-09-03T15:05:19.176Z,40.10
2022-09-03T15:07:52.097Z,40.10
2022-09-03T15:10:33.064Z,40.40
2022-09-03T15:13:12.063Z,40.10
2022-09-03T15:15:42.009Z,40.40
2022-09-03T15:18:18.410Z,40.90
2022-09-03T15:20:53.845Z,42.00
2022-09-03T15:23:53.785Z,42.10
2022-09-03T15:26:38.356Z,42.60
2022-09-03T15:29:22.430Z,41.90
2022-09-03T15:32:25.457Z,41.70
2022-09-03T15:35:06.322Z,41.20
2022-09-03T15:37:57.911Z,40.30
2022-09-03T15:40:45.531Z,39.90
2022-09-03T15:43:18.154Z,40.00
2022-09-03T15:45:58.461Z,40.30
2022-09-03T15:49:04.676Z,40.10
2022-09-03T15:51:41.305Z,40.30
2022-09-03T15:54:17.841Z,40.10
2022-09-03T15:57:04.858Z,40.50
2022-09-03T16:00:02.607Z,42.10
2022-09-03T16:03:20.385Z,41.20
2022-09-03T16:06:02.540Z,41.80
2022-09-03T16:08:32.632Z,42.60
2022-09-03T16:11:08.411Z,43.00
2022-09-03T16:13:44.587Z,43.60
2022-09-03T16:16:24.580Z,43.90
2022-09-03T16:19:17.142Z,43.80
2022-09-03T16:22:07.767Z,44.00
2022-09-03T16:24:51.510Z,44.00
2022-09-03T16:27:22.653Z,44.10
2022-09-03T16:30:22.165Z,44.20
2022-09-03T16:33:02.513Z,44.10
2022-09-03T16:35:54.963Z,44.90
2022-09-03T16:38:46.095Z,45.80
2022-09-03T16:41:21.965Z,46.10
2022-09-03T16:44:29.391Z,45.90
2022-09-03T16:47:30.417Z,46.80
2022-09-03T16:50:40.937Z,46.90
2022-09-03T16:53:35.476Z,47.20
2022-09-03T16:56:14.476Z,48.60
2022-09-03T16:59:02.512Z,49.00
2022-09-03T17:01:52.316Z,48.60
2022-09-03T17:05:12.635Z,50.80
2022-09-03T17:07:57.568Z,49.50
2022-09-03T17:11:15.995Z,50.50
2022-09-03T17:14:08.178Z,50.40
2022-09-03T17:16:46.294Z,50.60
2022-09-03T17:19:36.107Z,51.70
2022-09-03T17:22:32.744Z,52.80
2022-09-03T17:25:06.215Z,52.80
2022-09-03T17:27:42.621Z,53.40
2022-09-03T17:30:24.684Z,54.00
2022-09-03T17:33:32.144Z,54.00
2022-09-03T17:36:08.280Z,54.20
2022-09-03T17:38:47.202Z,54.30
2022-09-03T17:41:54.484Z,54.40
2022-09-03T17:44:55.016Z,55.10
2022-09-03T17:48:13.608Z,54.70
2022-09-03T17:51:06.177Z,55.30
2022-09-03T17:53:49.271Z,55.70
2022-09-03T17:56:32.156Z,56.80
2022-09-03T17:59:24.690Z,56.70
2022-09-03T18:02:02.599Z,56.60
2022-09-03T18:04:44.204Z,57.40
2022-09-03T18:07:45.201Z,57.70
2022-09-03T18:10:18.591Z,56.90
2022-09-03T18:13:01.459Z,58.00
2022-09-03T18:15:57.160Z,58.60
2022-09-03T18:18:29.470Z,58.00
2022-09-03T18:21:29.022Z,58.80
2022-09-03T18:24:20.328Z,59.60
2022-09-03T18:27:19.716Z,60.10
2022-09-03T18:30:26.564Z,59.60
2022-09-03T18:33:12.567Z,59.70
2022-09-03T18:35:58.884Z,59.90
2022-09-03T18:38:56.905Z,60.10
2022-09-03T18:42:38.519Z,60.50
2022-09-03T18:46:50.847Z,60.00
2022-09-03T18:49:39.313Z,59.90
2022-09-03T18:52:41.293Z,60.20
2022-09-03T18:56:09.777Z,60.70
2022-09-03T18:59:36.660Z,61.40
2022-09-03T19:02:42.242Z,60.90
2022-09-03T19:05:33.555Z,62.70
2022-09-03T19:08:36.782Z,61.30
2022-09-03T19:11:41.717Z,62.00
2022-09-03T19:14:59.289Z,61.60
2022-09-03T19:18:11.109Z,62.50
2022-09-03T19:21:07.711Z,62.60
2022-09-03T19:23:54.374Z,62.60
2022-09-03T19:27:37.556Z,62.20
2022-09-03T19:30:34.629Z,62.40
2022-09-03T19:33:33.294Z,62.40
2022-09-03T19:36:45.690Z,62.60
2022-09-03T19:39:40.252Z,62.10
2022-09-03T19:42:48.816Z,62.70
2022-09-03T19:46:15.843Z,62.40
2022-09-03T19:49:25.180Z,62.50
2022-09-03T19:52:43.745Z,62.20
2022-09-03T19:55:35.148Z,62.40
2022-09-03T19:58:42.020Z,62.30
2022-09-03T20:01:30.758Z,62.30
2022-09-03T20:04:25.678Z,62.80
2022-09-03T20:07:11.151Z,63.10
2022-09-03T20:10:01.139Z,63.00
2022-09-03T20:12:35.188Z,63.10
2022-09-03T20:15:08.008Z,63.50
2022-09-03T20:17:51.603Z,63.40
2022-09-03T20:21:12.692Z,63.50
2022-09-03T20:24:13.375Z,62.90
2022-09-03T20:27:31.870Z,63.20
2022-09-03T20:30:14.278Z,63.30
2022-09-03T20:32:41.637Z,64.00
2022-09-03T20:35:27.437Z,64.10
2022-09-03T20:37:59.027Z,64.10
2022-09-03T20:40:51.713Z,64.10
2022-09-03T20:44:08.305Z,64.00
2022-09-03T20:46:56.996Z,64.00
2022-09-03T20:49:47.954Z,64.00
2022-09-03T20:52:26.219Z,64.40
2022-09-03T20:55:29.388Z,64.40
2022-09-03T20:58:35.087Z,64.40
2022-09-03T21:01:22.742Z,64.70
2022-09-03T21:04:04.500Z,64.80
2022-09-03T21:06:54.200Z,65.30
2022-09-03T21:10:06.268Z,64.70
2022-09-03T21:13:13.440Z,65.20
2022-09-03T21:16:28.827Z,65.50
2022-09-03T21:19:38.496Z,64.50
2022-09-03T21:23:00.016Z,64.70
2022-09-03T21:25:40.760Z,65.30
2022-09-03T21:28:28.964Z,65.40
2022-09-03T21:31:03.565Z,66.10
2022-09-03T21:33:37.061Z,66.40
2022-09-03T21:36:35.146Z,66.00
2022-09-03T21:39:30.352Z,66.10
2022-09-03T21:42:36.520Z,65.70
2022-09-03T21:45:18.516Z,65.90
2022-09-03T21:48:06.597Z,66.10
2022-09-03T21:50:48.668Z,66.30
2022-09-03T21:54:02.349Z,66.10
2022-09-03T21:56:56.627Z,65.80
2022-09-03T21:59:57.976Z,65.50
2022-09-03T22:02:27.963Z,65.90
2022-09-03T22:04:57.305Z,66.10
2022-09-03T22:07:53.432Z,66.50
2022-09-03T22:10:31.850Z,66.50
2022-09-03T22:13:51.070Z,66.80
2022-09-03T22:16:54.870Z,66.70
2022-09-03T22:19:21.853Z,66.90
2022-09-03T22:21:59.805Z,66.30
2022-09-03T22:24:58.912Z,66.70
2022-09-03T22:28:03.273Z,66.90
2022-09-03T22:30:45.973Z,67.20
2022-09-03T22:33:43.228Z,67.30
2022-09-03T22:36:40.395Z,66.90
2022-09-03T22:39:37.618Z,67.40
2022-09-03T22:42:26.057Z,67.30
2022-09-03T22:45:31.440Z,67.70
2022-09-03T22:48:26.106Z,67.70
2022-09-03T22:50:58.114Z,67.60
2022-09-03T22:54:02.645Z,67.20
2022-09-03T22:56:35.852Z,67.60
2022-09-03T22:59:29.421Z,67.60
2022-09-03T23:02:26.679Z,67.80
2022-09-03T23:05:37.209Z,68.40
2022-09-03T23:08:14.828Z,68.10
2022-09-03T23:11:01.121Z,67.80
2022-09-03T23:13:47.685Z,68.00
2022-09-03T23:16:32.509Z,68.70
2022-09-03T23:22:01.800Z,68.50
2022-09-03T23:24:39.591Z,68.60
2022-09-03T23:27:14.449Z,68.90
2022-09-03T23:29:47.934Z,68.80
2022-09-03T23:32:15.145Z,68.80
2022-09-03T23:34:42.150Z,68.60
2022-09-03T23:40:11.762Z,69.40
2022-09-03T23:43:13.107Z,68.80
2022-09-03T23:46:12.007Z,69.40
2022-09-03T23:49:23.599Z,69.30
2022-09-03T23:52:10.688Z,69.30
2022-09-03T23:54:49.455Z,69.40
2022-09-03T23:57:29.148Z,69.50
